sensor_id;sensor_type;location;lat;lon;timestamp;pressure;altitude;pressure_sealevel;temperature;humidity
67373;BME280;54257;54.496;18.412;2023-03-04T00:00:01;99034.95;;;2.71;93.29
67373;BME280;54257;54.496;18.412;2023-03-04T00:02:28;99030.78;;;2.72;93.41
67373;BME280;54257;54.496;18.412;2023-03-04T00:04:55;99028.14;;;2.74;93.39
67373;BME280;54257;54.496;18.412;2023-03-04T00:07:22;99022.98;;;2.76;93.29
67373;BME280;54257;54.496;18.412;2023-03-04T00:09:49;99024.75;;;2.78;93.23
67373;BME280;54257;54.496;18.412;2023-03-04T00:12:16;99022.45;;;2.79;93.27
67373;BME280;54257;54.496;18.412;2023-03-04T00:14:43;99018.12;;;2.82;93.20
67373;BME280;54257;54.496;18.412;2023-03-04T00:17:10;99023.40;;;2.84;93.01
67373;BME280;54257;54.496;18.412;2023-03-04T00:19:37;99018.92;;;2.86;93.01
67373;BME280;54257;54.496;18.412;2023-03-04T00:22:04;99016.45;;;2.87;93.12
67373;BME280;54257;54.496;18.412;2023-03-04T00:24:31;99011.08;;;2.89;93.08
67373;BME280;54257;54.496;18.412;2023-03-04T00:26:58;99013.80;;;2.89;93.03
67373;BME280;54257;54.496;18.412;2023-03-04T00:29:25;99014.69;;;2.91;92.79
67373;BME280;54257;54.496;18.412;2023-03-04T00:31:52;99009.15;;;2.92;92.94
67373;BME280;54257;54.496;18.412;2023-03-04T00:34:22;99008.20;;;2.93;92.80
67373;BME280;54257;54.496;18.412;2023-03-04T00:36:50;99008.71;;;2.93;92.62
67373;BME280;54257;54.496;18.412;2023-03-04T00:39:19;99005.23;;;2.95;92.48
67373;BME280;54257;54.496;18.412;2023-03-04T00:41:46;99004.42;;;2.97;92.52
67373;BME280;54257;54.496;18.412;2023-03-04T00:44:13;98996.34;;;2.97;92.37
67373;BME280;54257;54.496;18.412;2023-03-04T00:46:41;98990.63;;;2.98;92.36
67373;BME280;54257;54.496;18.412;2023-03-04T00:49:08;98989.13;;;2.99;92.23
67373;BME280;54257;54.496;18.412;2023-03-04T00:51:35;98992.15;;;2.98;92.47
67373;BME280;54257;54.496;18.412;2023-03-04T00:54:02;98994.50;;;2.97;92.37
67373;BME280;54257;54.496;18.412;2023-03-04T00:56:29;98992.15;;;2.98;92.48
67373;BME280;54257;54.496;18.412;2023-03-04T00:58:56;98991.65;;;2.98;92.30
67373;BME280;54257;54.496;18.412;2023-03-04T01:01:23;98991.67;;;2.99;92.37
67373;BME280;54257;54.496;18.412;2023-03-04T01:03:50;98990.20;;;3.00;92.17
67373;BME280;54257;54.496;18.412;2023-03-04T01:06:18;98988.20;;;3.01;92.05
67373;BME280;54257;54.496;18.412;2023-03-04T01:08:45;98987.41;;;3.02;91.98
67373;BME280;54257;54.496;18.412;2023-03-04T01:11:12;98988.27;;;3.03;92.00
67373;BME280;54257;54.496;18.412;2023-03-04T01:13:39;98987.60;;;3.03;92.06
67373;BME280;54257;54.496;18.412;2023-03-04T01:16:07;98990.48;;;3.03;92.25
67373;BME280;54257;54.496;18.412;2023-03-04T01:18:38;98985.27;;;3.04;92.12
67373;BME280;54257;54.496;18.412;2023-03-04T01:21:05;98985.14;;;3.05;92.04
67373;BME280;54257;54.496;18.412;2023-03-04T01:23:32;98982.11;;;3.06;91.86
67373;BME280;54257;54.496;18.412;2023-03-04T01:25:59;98978.59;;;3.07;91.92
67373;BME280;54257;54.496;18.412;2023-03-04T01:28:26;98978.57;;;3.06;92.11
67373;BME280;54257;54.496;18.412;2023-03-04T01:30:53;98971.85;;;3.07;91.95
67373;BME280;54257;54.496;18.412;2023-03-04T01:33:20;98971.35;;;3.07;91.88
67373;BME280;54257;54.496;18.412;2023-03-04T01:35:47;98976.42;;;3.08;91.69
67373;BME280;54257;54.496;18.412;2023-03-04T01:38:14;98978.77;;;3.07;91.67
67373;BME280;54257;54.496;18.412;2023-03-04T01:40:41;98974.02;;;3.06;91.60
67373;BME280;54257;54.496;18.412;2023-03-04T01:43:14;98967.44;;;3.06;91.51
67373;BME280;54257;54.496;18.412;2023-03-04T01:45:42;98963.19;;;3.05;91.47
67373;BME280;54257;54.496;18.412;2023-03-04T01:48:11;98960.64;;;3.04;91.41
67373;BME280;54257;54.496;18.412;2023-03-04T01:50:42;98958.40;;;3.03;91.32
67373;BME280;54257;54.496;18.412;2023-03-04T01:53:21;98958.25;;;2.98;91.34
67373;BME280;54257;54.496;18.412;2023-03-04T01:55:49;98952.61;;;2.95;91.39
67373;BME280;54257;54.496;18.412;2023-03-04T01:58:17;98952.23;;;2.94;91.33
67373;BME280;54257;54.496;18.412;2023-03-04T02:00:44;98953.69;;;2.92;91.46
67373;BME280;54257;54.496;18.412;2023-03-04T02:03:14;98953.65;;;2.91;91.55
67373;BME280;54257;54.496;18.412;2023-03-04T02:05:44;98957.66;;;2.90;91.49
67373;BME280;54257;54.496;18.412;2023-03-04T02:08:12;98954.92;;;2.88;91.32
67373;BME280;54257;54.496;18.412;2023-03-04T02:10:42;98950.70;;;2.88;91.13
67373;BME280;54257;54.496;18.412;2023-03-04T02:13:10;98945.73;;;2.85;91.06
67373;BME280;54257;54.496;18.412;2023-03-04T02:15:37;98948.87;;;2.84;91.17
67373;BME280;54257;54.496;18.412;2023-03-04T02:18:15;98947.97;;;2.82;91.28
67373;BME280;54257;54.496;18.412;2023-03-04T02:23:37;98941.70;;;2.75;91.20
67373;BME280;54257;54.496;18.412;2023-03-04T02:26:20;98939.75;;;2.72;91.26
67373;BME280;54257;54.496;18.412;2023-03-04T02:28:50;98936.91;;;2.68;91.70
67373;BME280;54257;54.496;18.412;2023-03-04T02:31:35;98937.83;;;2.64;92.16
67373;BME280;54257;54.496;18.412;2023-03-04T02:34:23;98935.34;;;2.61;92.31
67373;BME280;54257;54.496;18.412;2023-03-04T02:36:52;98937.12;;;2.58;92.33
67373;BME280;54257;54.496;18.412;2023-03-04T02:41:48;98937.14;;;2.53;92.65
67373;BME280;54257;54.496;18.412;2023-03-04T02:44:19;98936.54;;;2.50;92.77
67373;BME280;54257;54.496;18.412;2023-03-04T02:46:48;98936.83;;;2.49;92.90
67373;BME280;54257;54.496;18.412;2023-03-04T02:49:17;98937.25;;;2.46;93.20
67373;BME280;54257;54.496;18.412;2023-03-04T02:51:45;98941.03;;;2.43;93.37
67373;BME280;54257;54.496;18.412;2023-03-04T02:54:16;98945.50;;;2.40;93.50
67373;BME280;54257;54.496;18.412;2023-03-04T02:56:49;98950.36;;;2.40;93.69
67373;BME280;54257;54.496;18.412;2023-03-04T02:59:17;98949.15;;;2.39;93.60
67373;BME280;54257;54.496;18.412;2023-03-04T03:01:45;98948.95;;;2.38;94.32
67373;BME280;54257;54.496;18.412;2023-03-04T03:04:13;98951.11;;;2.37;94.23
67373;BME280;54257;54.496;18.412;2023-03-04T03:06:40;98950.59;;;2.37;94.23
67373;BME280;54257;54.496;18.412;2023-03-04T03:09:07;98941.13;;;2.36;94.21
67373;BME280;54257;54.496;18.412;2023-03-04T03:11:34;98943.62;;;2.35;94.45
67373;BME280;54257;54.496;18.412;2023-03-04T03:14:01;98937.98;;;2.32;94.33
67373;BME280;54257;54.496;18.412;2023-03-04T03:16:28;98936.42;;;2.31;94.23
67373;BME280;54257;54.496;18.412;2023-03-04T03:18:55;98935.20;;;2.29;94.20
67373;BME280;54257;54.496;18.412;2023-03-04T03:21:23;98931.23;;;2.27;94.08
67373;BME280;54257;54.496;18.412;2023-03-04T03:23:50;98932.00;;;2.24;94.15
67373;BME280;54257;54.496;18.412;2023-03-04T03:26:17;98930.77;;;2.22;94.23
67373;BME280;54257;54.496;18.412;2023-03-04T03:28:45;98936.60;;;2.20;94.20
67373;BME280;54257;54.496;18.412;2023-03-04T03:31:13;98934.67;;;2.19;94.23
67373;BME280;54257;54.496;18.412;2023-03-04T03:33:40;98939.46;;;2.16;94.20
67373;BME280;54257;54.496;18.412;2023-03-04T03:36:07;98935.33;;;2.13;94.11
67373;BME280;54257;54.496;18.412;2023-03-04T03:38:34;98932.73;;;2.11;93.98
67373;BME280;54257;54.496;18.412;2023-03-04T03:41:01;98932.83;;;2.09;93.90
67373;BME280;54257;54.496;18.412;2023-03-04T03:43:28;98930.75;;;2.07;93.78
67373;BME280;54257;54.496;18.412;2023-03-04T03:45:55;98931.01;;;2.04;93.78
67373;BME280;54257;54.496;18.412;2023-03-04T03:48:24;98927.88;;;2.02;93.91
67373;BME280;54257;54.496;18.412;2023-03-04T03:50:52;98925.64;;;2.00;93.77
67373;BME280;54257;54.496;18.412;2023-03-04T03:53:19;98925.39;;;1.98;93.77
67373;BME280;54257;54.496;18.412;2023-03-04T03:55:46;98924.80;;;1.95;93.81
67373;BME280;54257;54.496;18.412;2023-03-04T03:58:12;98926.25;;;1.93;94.06
67373;BME280;54257;54.496;18.412;2023-03-04T04:00:39;98928.38;;;1.91;93.76
67373;BME280;54257;54.496;18.412;2023-03-04T04:03:06;98926.61;;;1.89;93.83
67373;BME280;54257;54.496;18.412;2023-03-04T04:05:33;98923.67;;;1.87;93.73
67373;BME280;54257;54.496;18.412;2023-03-04T04:08:03;98918.89;;;1.85;93.87
67373;BME280;54257;54.496;18.412;2023-03-04T04:10:30;98918.98;;;1.83;93.82
67373;BME280;54257;54.496;18.412;2023-03-04T04:12:58;98923.27;;;1.80;93.87
67373;BME280;54257;54.496;18.412;2023-03-04T04:15:25;98923.17;;;1.77;93.97
67373;BME280;54257;54.496;18.412;2023-03-04T04:17:52;98925.29;;;1.75;93.89
67373;BME280;54257;54.496;18.412;2023-03-04T04:20:19;98928.58;;;1.73;93.93
67373;BME280;54257;54.496;18.412;2023-03-04T04:22:46;98932.64;;;1.69;93.94
67373;BME280;54257;54.496;18.412;2023-03-04T04:25:14;98931.39;;;1.66;93.97
67373;BME280;54257;54.496;18.412;2023-03-04T04:27:42;98933.34;;;1.64;94.03
67373;BME280;54257;54.496;18.412;2023-03-04T04:30:09;98930.02;;;1.61;94.43
67373;BME280;54257;54.496;18.412;2023-03-04T04:32:36;98928.10;;;1.59;94.29
67373;BME280;54257;54.496;18.412;2023-03-04T04:35:04;98930.55;;;1.57;94.42
67373;BME280;54257;54.496;18.412;2023-03-04T04:37:31;98925.94;;;1.55;94.51
67373;BME280;54257;54.496;18.412;2023-03-04T04:39:58;98929.09;;;1.54;94.39
67373;BME280;54257;54.496;18.412;2023-03-04T04:42:25;98931.76;;;1.53;94.63
67373;BME280;54257;54.496;18.412;2023-03-04T04:44:52;98929.02;;;1.52;94.79
67373;BME280;54257;54.496;18.412;2023-03-04T04:47:19;98928.30;;;1.51;94.75
67373;BME280;54257;54.496;18.412;2023-03-04T04:49:46;98929.66;;;1.51;94.75
67373;BME280;54257;54.496;18.412;2023-03-04T04:52:16;98928.80;;;1.50;94.70
67373;BME280;54257;54.496;18.412;2023-03-04T04:54:46;98924.92;;;1.50;94.78
67373;BME280;54257;54.496;18.412;2023-03-04T04:57:13;98925.10;;;1.50;94.80
67373;BME280;54257;54.496;18.412;2023-03-04T04:59:41;98924.75;;;1.50;94.82
67373;BME280;54257;54.496;18.412;2023-03-04T05:02:08;98920.70;;;1.50;94.79
67373;BME280;54257;54.496;18.412;2023-03-04T05:04:35;98916.52;;;1.50;94.59
67373;BME280;54257;54.496;18.412;2023-03-04T05:07:02;98916.50;;;1.50;94.50
67373;BME280;54257;54.496;18.412;2023-03-04T05:09:30;98918.89;;;1.51;94.45
67373;BME280;54257;54.496;18.412;2023-03-04T05:11:57;98911.30;;;1.50;94.32
67373;BME280;54257;54.496;18.412;2023-03-04T05:14:24;98910.52;;;1.52;94.13
67373;BME280;54257;54.496;18.412;2023-03-04T05:16:51;98911.38;;;1.53;94.24
67373;BME280;54257;54.496;18.412;2023-03-04T05:19:19;98914.83;;;1.55;94.19
67373;BME280;54257;54.496;18.412;2023-03-04T05:21:46;98915.15;;;1.54;94.03
67373;BME280;54257;54.496;18.412;2023-03-04T05:24:13;98913.52;;;1.56;94.04
67373;BME280;54257;54.496;18.412;2023-03-04T05:26:40;98918.09;;;1.56;93.75
67373;BME280;54257;54.496;18.412;2023-03-04T05:29:07;98917.98;;;1.58;93.72
67373;BME280;54257;54.496;18.412;2023-03-04T05:31:35;98917.98;;;1.59;93.57
67373;BME280;54257;54.496;18.412;2023-03-04T05:34:08;98921.20;;;1.59;93.51
67373;BME280;54257;54.496;18.412;2023-03-04T05:36:35;98921.55;;;1.59;93.49
67373;BME280;54257;54.496;18.412;2023-03-04T05:39:02;98923.74;;;1.59;93.37
67373;BME280;54257;54.496;18.412;2023-03-04T05:41:29;98924.95;;;1.61;93.35
67373;BME280;54257;54.496;18.412;2023-03-04T05:43:56;98926.81;;;1.61;93.34
67373;BME280;54257;54.496;18.412;2023-03-04T05:46:23;98931.33;;;1.60;93.10
67373;BME280;54257;54.496;18.412;2023-03-04T05:48:53;98931.68;;;1.61;93.07
67373;BME280;54257;54.496;18.412;2023-03-04T05:51:22;98931.72;;;1.62;93.07
67373;BME280;54257;54.496;18.412;2023-03-04T05:53:50;98929.21;;;1.62;93.10
67373;BME280;54257;54.496;18.412;2023-03-04T05:56:18;98929.88;;;1.62;92.84
67373;BME280;54257;54.496;18.412;2023-03-04T05:58:46;98926.02;;;1.62;92.83
67373;BME280;54257;54.496;18.412;2023-03-04T06:01:13;98929.94;;;1.63;92.66
67373;BME280;54257;54.496;18.412;2023-03-04T06:03:41;98928.45;;;1.64;92.61
67373;BME280;54257;54.496;18.412;2023-03-04T06:06:09;98927.11;;;1.64;92.50
67373;BME280;54257;54.496;18.412;2023-03-04T06:08:36;98933.19;;;1.65;92.38
67373;BME280;54257;54.496;18.412;2023-03-04T06:11:04;98936.59;;;1.66;92.35
67373;BME280;54257;54.496;18.412;2023-03-04T06:13:33;98936.77;;;1.66;92.03
67373;BME280;54257;54.496;18.412;2023-03-04T06:16:00;98933.93;;;1.67;92.03
67373;BME280;54257;54.496;18.412;2023-03-04T06:18:28;98939.20;;;1.69;91.98
67373;BME280;54257;54.496;18.412;2023-03-04T06:20:59;98940.94;;;1.70;91.80
67373;BME280;54257;54.496;18.412;2023-03-04T06:23:27;98940.10;;;1.71;91.55
67373;BME280;54257;54.496;18.412;2023-03-04T06:25:56;98938.29;;;1.71;91.51
67373;BME280;54257;54.496;18.412;2023-03-04T06:28:26;98942.88;;;1.72;91.42
67373;BME280;54257;54.496;18.412;2023-03-04T06:30:55;98943.08;;;1.74;91.16
67373;BME280;54257;54.496;18.412;2023-03-04T06:33:22;98942.45;;;1.75;90.91
67373;BME280;54257;54.496;18.412;2023-03-04T06:35:53;98938.44;;;1.76;90.56
67373;BME280;54257;54.496;18.412;2023-03-04T06:38:21;98938.08;;;1.75;89.79
67373;BME280;54257;54.496;18.412;2023-03-04T06:40:48;98942.33;;;1.76;89.74
67373;BME280;54257;54.496;18.412;2023-03-04T06:43:15;98935.11;;;1.77;89.28
67373;BME280;54257;54.496;18.412;2023-03-04T06:45:42;98935.71;;;1.79;88.98
67373;BME280;54257;54.496;18.412;2023-03-04T06:48:10;98937.61;;;1.80;88.52
67373;BME280;54257;54.496;18.412;2023-03-04T06:50:40;98939.15;;;1.81;87.86
67373;BME280;54257;54.496;18.412;2023-03-04T06:53:07;98936.83;;;1.82;87.04
67373;BME280;54257;54.496;18.412;2023-03-04T06:55:34;98938.73;;;1.84;86.76
67373;BME280;54257;54.496;18.412;2023-03-04T06:58:02;98943.16;;;1.86;86.26
67373;BME280;54257;54.496;18.412;2023-03-04T07:00:29;98948.17;;;1.89;86.13
67373;BME280;54257;54.496;18.412;2023-03-04T07:02:57;98946.39;;;1.91;86.01
67373;BME280;54257;54.496;18.412;2023-03-04T07:05:24;98953.41;;;1.94;85.69
67373;BME280;54257;54.496;18.412;2023-03-04T07:07:52;98954.31;;;1.96;85.50
67373;BME280;54257;54.496;18.412;2023-03-04T07:10:19;98953.70;;;1.98;85.28
67373;BME280;54257;54.496;18.412;2023-03-04T07:12:47;98959.98;;;2.00;84.90
67373;BME280;54257;54.496;18.412;2023-03-04T07:15:14;98960.89;;;2.02;84.71
67373;BME280;54257;54.496;18.412;2023-03-04T07:17:40;98959.39;;;2.03;83.59
67373;BME280;54257;54.496;18.412;2023-03-04T07:20:08;98962.91;;;2.02;83.11
67373;BME280;54257;54.496;18.412;2023-03-04T07:22:35;98968.85;;;2.03;83.06
67373;BME280;54257;54.496;18.412;2023-03-04T07:25:04;98968.39;;;2.04;82.52
67373;BME280;54257;54.496;18.412;2023-03-04T07:27:32;98970.79;;;2.05;82.37
67373;BME280;54257;54.496;18.412;2023-03-04T07:29:59;98969.52;;;2.08;81.85
67373;BME280;54257;54.496;18.412;2023-03-04T07:32:27;98966.16;;;2.08;78.52
67373;BME280;54257;54.496;18.412;2023-03-04T07:34:54;98983.58;;;2.11;79.25
67373;BME280;54257;54.496;18.412;2023-03-04T07:37:21;98985.48;;;2.12;78.51
67373;BME280;54257;54.496;18.412;2023-03-04T07:39:48;98981.35;;;2.14;76.89
67373;BME280;54257;54.496;18.412;2023-03-04T07:42:14;98985.55;;;2.14;73.33
67373;BME280;54257;54.496;18.412;2023-03-04T07:44:41;98985.23;;;2.14;72.79
67373;BME280;54257;54.496;18.412;2023-03-04T07:47:08;98979.36;;;2.15;72.29
67373;BME280;54257;54.496;18.412;2023-03-04T07:49:35;98984.65;;;2.17;72.51
67373;BME280;54257;54.496;18.412;2023-03-04T07:52:04;98983.33;;;2.18;70.76
67373;BME280;54257;54.496;18.412;2023-03-04T07:54:31;98985.36;;;2.19;69.99
67373;BME280;54257;54.496;18.412;2023-03-04T07:56:58;98984.34;;;2.18;68.89
67373;BME280;54257;54.496;18.412;2023-03-04T07:59:25;98982.45;;;2.17;68.49
67373;BME280;54257;54.496;18.412;2023-03-04T08:01:52;98984.88;;;2.19;69.00
67373;BME280;54257;54.496;18.412;2023-03-04T08:04:19;98984.42;;;2.20;68.04
67373;BME280;54257;54.496;18.412;2023-03-04T08:06:46;98982.58;;;2.20;66.34
67373;BME280;54257;54.496;18.412;2023-03-04T08:09:14;98981.46;;;2.22;67.34
67373;BME280;54257;54.496;18.412;2023-03-04T08:11:42;98976.64;;;2.24;67.91
67373;BME280;54257;54.496;18.412;2023-03-04T08:14:11;98972.85;;;2.27;66.17
67373;BME280;54257;54.496;18.412;2023-03-04T08:16:38;98973.95;;;2.29;66.57
67373;BME280;54257;54.496;18.412;2023-03-04T08:19:06;98976.58;;;2.33;67.39
67373;BME280;54257;54.496;18.412;2023-03-04T08:21:34;98976.41;;;2.38;67.38
67373;BME280;54257;54.496;18.412;2023-03-04T08:24:03;98973.46;;;2.40;66.11
67373;BME280;54257;54.496;18.412;2023-03-04T08:26:36;98978.59;;;2.43;66.40
67373;BME280;54257;54.496;18.412;2023-03-04T08:29:04;98978.11;;;2.44;64.22
67373;BME280;54257;54.496;18.412;2023-03-04T08:31:32;98978.83;;;2.44;64.78
67373;BME280;54257;54.496;18.412;2023-03-04T08:34:00;98979.33;;;2.50;66.07
67373;BME280;54257;54.496;18.412;2023-03-04T08:36:28;98980.14;;;2.54;65.34
67373;BME280;54257;54.496;18.412;2023-03-04T08:38:55;98983.67;;;2.59;65.43
67373;BME280;54257;54.496;18.412;2023-03-04T08:41:22;98980.11;;;2.63;65.38
67373;BME280;54257;54.496;18.412;2023-03-04T08:43:51;98983.59;;;2.67;64.69
67373;BME280;54257;54.496;18.412;2023-03-04T08:46:18;98983.66;;;2.69;63.49
67373;BME280;54257;54.496;18.412;2023-03-04T08:48:45;98984.15;;;2.69;59.70
67373;BME280;54257;54.496;18.412;2023-03-04T08:51:13;98991.66;;;2.67;57.93
67373;BME280;54257;54.496;18.412;2023-03-04T08:53:45;98996.35;;;2.65;59.43
67373;BME280;54257;54.496;18.412;2023-03-04T08:56:13;98994.65;;;2.65;58.38
67373;BME280;54257;54.496;18.412;2023-03-04T08:58:40;98996.64;;;2.63;57.80
67373;BME280;54257;54.496;18.412;2023-03-04T09:01:09;99005.98;;;2.61;56.79
67373;BME280;54257;54.496;18.412;2023-03-04T09:03:37;99009.81;;;2.54;55.05
67373;BME280;54257;54.496;18.412;2023-03-04T09:06:05;99008.52;;;2.51;56.38
67373;BME280;54257;54.496;18.412;2023-03-04T09:08:33;99011.02;;;2.50;56.04
67373;BME280;54257;54.496;18.412;2023-03-04T09:11:01;99009.28;;;2.48;55.60
67373;BME280;54257;54.496;18.412;2023-03-04T09:13:29;99018.19;;;2.47;54.99
67373;BME280;54257;54.496;18.412;2023-03-04T09:15:57;99019.33;;;2.46;54.74
67373;BME280;54257;54.496;18.412;2023-03-04T09:18:24;99020.25;;;2.49;56.27
67373;BME280;54257;54.496;18.412;2023-03-04T09:20:52;99021.89;;;2.53;56.65
67373;BME280;54257;54.496;18.412;2023-03-04T09:23:19;99025.03;;;2.56;55.89
67373;BME280;54257;54.496;18.412;2023-03-04T09:25:48;99022.22;;;2.58;56.43
67373;BME280;54257;54.496;18.412;2023-03-04T09:28:16;99021.35;;;2.62;56.43
67373;BME280;54257;54.496;18.412;2023-03-04T09:30:43;99021.64;;;2.66;54.82
67373;BME280;54257;54.496;18.412;2023-03-04T09:33:11;99025.29;;;2.64;53.77
67373;BME280;54257;54.496;18.412;2023-03-04T09:35:38;99026.13;;;2.63;54.38
67373;BME280;54257;54.496;18.412;2023-03-04T09:38:06;99027.74;;;2.67;55.80
67373;BME280;54257;54.496;18.412;2023-03-04T09:40:40;99028.27;;;2.72;55.85
67373;BME280;54257;54.496;18.412;2023-03-04T09:43:21;99030.80;;;2.78;55.11
67373;BME280;54257;54.496;18.412;2023-03-04T09:45:56;99031.90;;;2.75;51.95
67373;BME280;54257;54.496;18.412;2023-03-04T09:48:28;99038.94;;;2.74;52.97
67373;BME280;54257;54.496;18.412;2023-03-04T09:54:03;99032.24;;;2.75;52.84
67373;BME280;54257;54.496;18.412;2023-03-04T09:56:34;99041.24;;;2.77;53.21
67373;BME280;54257;54.496;18.412;2023-03-04T09:59:26;99046.33;;;2.78;53.27
67373;BME280;54257;54.496;18.412;2023-03-04T10:02:06;99044.00;;;2.79;53.22
67373;BME280;54257;54.496;18.412;2023-03-04T10:04:46;99049.73;;;2.85;51.96
67373;BME280;54257;54.496;18.412;2023-03-04T10:07:25;99048.20;;;2.89;52.31
67373;BME280;54257;54.496;18.412;2023-03-04T10:10:09;99046.18;;;3.05;52.33
67373;BME280;54257;54.496;18.412;2023-03-04T10:12:42;99049.69;;;3.20;51.01
67373;BME280;54257;54.496;18.412;2023-03-04T10:15:39;99042.70;;;3.24;49.73
67373;BME280;54257;54.496;18.412;2023-03-04T10:18:29;99044.13;;;3.31;50.13
67373;BME280;54257;54.496;18.412;2023-03-04T10:21:03;99044.30;;;3.37;50.25
67373;BME280;54257;54.496;18.412;2023-03-04T10:23:34;99040.79;;;3.39;49.80
67373;BME280;54257;54.496;18.412;2023-03-04T10:26:15;99046.36;;;3.38;49.70
67373;BME280;54257;54.496;18.412;2023-03-04T10:28:43;99042.96;;;3.38;49.65
67373;BME280;54257;54.496;18.412;2023-03-04T10:31:30;99042.54;;;3.40;49.82
67373;BME280;54257;54.496;18.412;2023-03-04T10:34:02;99037.16;;;3.53;48.47
67373;BME280;54257;54.496;18.412;2023-03-04T10:39:19;99031.45;;;3.77;47.91
67373;BME280;54257;54.496;18.412;2023-03-04T10:41:56;99040.98;;;3.80;46.22
67373;BME280;54257;54.496;18.412;2023-03-04T10:44:24;99030.95;;;3.89;46.70
67373;BME280;54257;54.496;18.412;2023-03-04T10:46:54;99044.89;;;3.99;45.91
67373;BME280;54257;54.496;18.412;2023-03-04T10:49:22;99048.43;;;4.17;45.08
67373;BME280;54257;54.496;18.412;2023-03-04T10:52:20;99053.71;;;4.37;43.32
67373;BME280;54257;54.496;18.412;2023-03-04T10:54:52;99047.35;;;4.66;41.87
67373;BME280;54257;54.496;18.412;2023-03-04T10:57:39;99049.80;;;4.82;42.92
67373;BME280;54257;54.496;18.412;2023-03-04T11:02:46;99042.06;;;5.14;41.45
67373;BME280;54257;54.496;18.412;2023-03-04T11:07:52;99042.23;;;5.66;40.74
67373;BME280;54257;54.496;18.412;2023-03-04T11:10:38;99040.91;;;5.77;40.07
67373;BME280;54257;54.496;18.412;2023-03-04T11:15:57;99042.73;;;6.16;41.87
67373;BME280;54257;54.496;18.412;2023-03-04T11:18:45;99041.55;;;6.43;41.45
67373;BME280;54257;54.496;18.412;2023-03-04T11:21:24;99048.48;;;6.71;42.53
67373;BME280;54257;54.496;18.412;2023-03-04T11:24:00;99053.41;;;6.91;39.50
67373;BME280;54257;54.496;18.412;2023-03-04T11:26:42;99054.02;;;6.87;38.89
67373;BME280;54257;54.496;18.412;2023-03-04T11:29:35;99047.20;;;6.96;37.96
67373;BME280;54257;54.496;18.412;2023-03-04T11:32:14;99048.55;;;6.85;34.99
67373;BME280;54257;54.496;18.412;2023-03-04T11:34:49;99058.26;;;6.77;34.75
67373;BME280;54257;54.496;18.412;2023-03-04T11:42:58;99069.44;;;6.46;34.65
67373;BME280;54257;54.496;18.412;2023-03-04T11:48:36;99078.73;;;6.64;33.53
67373;BME280;54257;54.496;18.412;2023-03-04T11:51:27;99076.11;;;6.41;33.32
67373;BME280;54257;54.496;18.412;2023-03-04T11:56:38;99083.45;;;6.61;33.63
67373;BME280;54257;54.496;18.412;2023-03-04T12:02:17;99103.60;;;6.68;33.20
67373;BME280;54257;54.496;18.412;2023-03-04T12:05:04;99096.28;;;6.68;33.55
67373;BME280;54257;54.496;18.412;2023-03-04T12:10:27;99095.02;;;6.44;32.88
67373;BME280;54257;54.496;18.412;2023-03-04T12:16:04;99101.97;;;6.27;33.85
67373;BME280;54257;54.496;18.412;2023-03-04T12:29:32;99100.40;;;5.85;36.02
67373;BME280;54257;54.496;18.412;2023-03-04T12:32:15;99105.87;;;5.64;36.14
67373;BME280;54257;54.496;18.412;2023-03-04T12:35:18;99106.41;;;5.51;36.18
67373;BME280;54257;54.496;18.412;2023-03-04T12:48:41;99133.59;;;4.60;37.11
67373;BME280;54257;54.496;18.412;2023-03-04T12:56:55;99135.31;;;3.77;37.17
67373;BME280;54257;54.496;18.412;2023-03-04T12:59:25;99143.31;;;3.52;37.63
67373;BME280;54257;54.496;18.412;2023-03-04T13:02:43;99143.93;;;3.28;36.69
67373;BME280;54257;54.496;18.412;2023-03-04T13:16:39;99146.14;;;4.01;36.83
67373;BME280;54257;54.496;18.412;2023-03-04T13:24:56;99139.87;;;4.48;36.73
67373;BME280;54257;54.496;18.412;2023-03-04T13:27:49;99143.91;;;4.47;34.53
67373;BME280;54257;54.496;18.412;2023-03-04T13:41:18;99150.40;;;4.13;36.30
67373;BME280;54257;54.496;18.412;2023-03-04T13:43:46;99144.98;;;3.95;36.63
67373;BME280;54257;54.496;18.412;2023-03-04T13:51:40;99169.90;;;3.44;38.75
67373;BME280;54257;54.496;18.412;2023-03-04T13:56:46;99176.59;;;3.16;39.32
67373;BME280;54257;54.496;18.412;2023-03-04T14:02:00;99182.83;;;2.86;40.35
67373;BME280;54257;54.496;18.412;2023-03-04T14:04:31;99180.52;;;2.77;40.54
67373;BME280;54257;54.496;18.412;2023-03-04T14:07:02;99189.14;;;2.68;41.14
67373;BME280;54257;54.496;18.412;2023-03-04T14:09:31;99196.71;;;2.59;42.12
67373;BME280;54257;54.496;18.412;2023-03-04T14:12:02;99197.74;;;2.50;42.93
67373;BME280;54257;54.496;18.412;2023-03-04T14:14:58;99197.27;;;2.41;43.93
67373;BME280;54257;54.496;18.412;2023-03-04T14:17:29;99204.86;;;2.37;45.02
67373;BME280;54257;54.496;18.412;2023-03-04T14:19:58;99208.66;;;2.39;45.40
67373;BME280;54257;54.496;18.412;2023-03-04T14:22:40;99203.41;;;2.53;45.27
67373;BME280;54257;54.496;18.412;2023-03-04T14:27:45;99207.52;;;2.54;43.19
67373;BME280;54257;54.496;18.412;2023-03-04T14:30:22;99219.67;;;2.36;42.64
67373;BME280;54257;54.496;18.412;2023-03-04T14:32:55;99231.23;;;2.22;43.47
67373;BME280;54257;54.496;18.412;2023-03-04T14:35:26;99223.64;;;2.08;43.81
67373;BME280;54257;54.496;18.412;2023-03-04T14:38:20;99220.30;;;1.95;44.15
67373;BME280;54257;54.496;18.412;2023-03-04T14:40:59;99223.40;;;1.84;44.39
67373;BME280;54257;54.496;18.412;2023-03-04T14:43:28;99219.56;;;1.72;43.47
67373;BME280;54257;54.496;18.412;2023-03-04T14:46:00;99214.55;;;1.60;43.41
67373;BME280;54257;54.496;18.412;2023-03-04T14:48:32;99214.80;;;1.50;43.79
67373;BME280;54257;54.496;18.412;2023-03-04T14:51:01;99213.71;;;1.39;43.61
67373;BME280;54257;54.496;18.412;2023-03-04T14:53:30;99212.45;;;1.33;43.87
67373;BME280;54257;54.496;18.412;2023-03-04T14:56:04;99213.16;;;1.26;42.53
67373;BME280;54257;54.496;18.412;2023-03-04T14:58:33;99210.34;;;1.23;42.82
67373;BME280;54257;54.496;18.412;2023-03-04T15:03:31;99213.30;;;1.21;43.02
67373;BME280;54257;54.496;18.412;2023-03-04T15:06:21;99209.90;;;1.21;43.47